• Join FlightAware (Why Join?)
  • Login
  • US Flag 
06:50PM EST


 

Airport Tracker/Info


-or-


 

Live Flight TrackerFlight Track Log ✈ UAL3732 ✈ 14-Feb-2014 ✈ KCLT - KORD

Flight Track Log - Related Links

Times and Time Zones

All times are in EST time to prevent confusion due to time zone crossing. See the UAL3732 flight status page for this flight to view local times or setup timezone preferences in your user account.

Time Position Orientation Groundspeed Altitude Reporting Facility
EST Latitude Longitude Course Direction KTS MPH feet Rate Location/Type
08:33PM 35.1933 -80.9533 179° South 148 170 2,100  Level Atlanta Center
08:34PM 35.1433 -80.9528 179° South 205 236 4,000 2,160 Climbing Atlanta Center
08:35PM 35.1133 -81.0122 238° Southwest 256 295 6,600 1,920 Climbing Atlanta Center
08:36PM 35.1194 -81.0856 276° West 250 288 7,500 1,080 Climbing Atlanta Center
08:36PM 35.1217 -81.0958 285° West 252 290 7,700 2,100 Climbing Atlanta Center
08:37PM 35.1275 -81.1642 276° West 265 305 9,600 2,220 Climbing Atlanta Center
08:38PM 35.1769 -81.2308 312° West 265 305 11,700 1,860 Climbing Atlanta Center
08:39PM 35.2789 -81.2097 10° North 268 308 13,400 1,800 Climbing Atlanta Center
08:40PM 35.3453 -81.1031 53° Northeast 299 344 15,400 2,280 Climbing Atlanta Center
08:41PM 35.4156 -80.9936 52° Northeast 349 402 18,000 2,580 Climbing Atlanta Center
08:42PM 35.5231 -80.9511 18° North 368 423 20,600 2,100 Climbing Atlanta Center
08:43PM 35.6242 -80.9986 339° North 352 405 22,200 1,200 Climbing Atlanta Center
08:44PM 35.7156 -81.0592 332° Northwest 382 440 23,100 900 Climbing Atlanta Center
08:45PM 35.8150 -81.1194 334° Northwest 387 445 24,100 1,020 Climbing Atlanta Center
08:46PM 35.9067 -81.2008 324° Northwest 394 453 25,200 1,140 Climbing Atlanta Center
08:47PM 35.9919 -81.2900 320° Northwest 399 459 26,400 1,200 Climbing Atlanta Center
08:48PM 36.0775 -81.3850 318° Northwest 405 466 27,700 1,440 Climbing Atlanta Center
08:49PM 36.1650 -81.4797 319° Northwest 415 478 29,300 1,440 Climbing Atlanta Center
08:50PM 36.2567 -81.5747 320° Northwest 421 484 30,600 1,680 Climbing Atlanta Center
08:51PM 36.3442 -81.6750 317° Northwest 427 491 32,700 1,680 Climbing Atlanta Center
08:53PM 36.5236 -81.8697 319° Northwest 410 472 35,800 1,020 Climbing Indianapolis Center
08:54PM 36.6081 -81.9656 318° Northwest 410 472 36,000 60 Climbing Indianapolis Center
08:55PM 36.6997 -82.0675 318° Northwest 432 497 36,000  Level Indianapolis Center
08:56PM 36.7944 -82.1700 319° Northwest 447 514 36,000  Level Indianapolis Center
08:57PM 36.8856 -82.2719 318° Northwest 444 511 36,000  Level Indianapolis Center
08:58PM 36.9889 -82.3886 318° Northwest 433 498 36,000  Level Indianapolis Center
08:59PM 37.0808 -82.4914 318° Northwest 441 507 36,000  Level Indianapolis Center
09:00PM 37.1742 -82.5967 318° Northwest 451 519 36,000  Level Indianapolis Center
09:02PM 37.2656 -82.6992 318° Northwest 448 516 36,000  Level Indianapolis Center
09:03PM 37.3558 -82.8028 318° Northwest 442 509 36,000  Level Indianapolis Center
09:04PM 37.4486 -82.9078 318° Northwest 447 514 36,000  Level Indianapolis Center
09:05PM 37.5425 -83.0144 318° Northwest 453 521 36,000  Level Indianapolis Center
09:06PM 37.6500 -83.1375 318° Northwest 450 518 36,000  Level Indianapolis Center
09:07PM 37.7419 -83.2450 317° Northwest 449 517 36,000  Level Indianapolis Center
09:08PM 37.8322 -83.3481 318° Northwest 443 510 36,000  Level Indianapolis Center
09:09PM 37.9219 -83.4533 317° Northwest 439 505 36,000 -120 Level Indianapolis Center
09:10PM 38.0122 -83.5558 318° Northwest 437 503 35,800 -480 Descending Indianapolis Center
09:11PM 38.1169 -83.6414 327° Northwest 447 514 35,100 -420 Descending Indianapolis Center
09:12PM 38.2211 -83.7261 327° Northwest 445 512 35,000 -60 Descending Indianapolis Center
09:13PM 38.3281 -83.8147 327° Northwest 454 522 35,000  Level Indianapolis Center
09:14PM 38.4519 -83.9197 326° Northwest 457 526 35,000  Level Indianapolis Center
09:15PM 38.5581 -84.0053 328° Northwest 454 522 35,000  Level Indianapolis Center
09:16PM 38.6492 -84.0825 327° Northwest 454 522 35,000  Level Indianapolis Center
09:17PM 38.7544 -84.1714 327° Northwest 454 522 35,000  Level Indianapolis Center
09:18PM 38.8800 -84.2767 327° Northwest 450 518 35,000  Level Indianapolis Center
09:19PM 38.9847 -84.3647 327° Northwest 449 517 35,000  Level Indianapolis Center
09:20PM 39.0892 -84.4544 326° Northwest 449 517 35,000 -300 Level Indianapolis Center
09:21PM 39.1933 -84.5436 326° Northwest 449 517 34,400 -1,320 Descending Indianapolis Center
09:22PM 39.2989 -84.6342 326° Northwest 452 520 32,300 -1,980 Descending Indianapolis Center
09:23PM 39.4042 -84.7231 327° Northwest 451 519 30,400 -1,740 Descending Indianapolis Center
09:24PM 39.5136 -84.8153 327° Northwest 461 531 28,800 -1,200 Descending Indianapolis Center
09:25PM 39.6200 -84.9094 326° Northwest 460 529 28,000 -420 Descending Indianapolis Center
09:26PM 39.7247 -84.9989 327° Northwest 458 527 28,000  Level Indianapolis Center
09:27PM 39.8278 -85.0883 326° Northwest 454 522 28,000 -360 Level Indianapolis Center
09:28PM 39.9497 -85.1964 326° Northwest 449 517 27,300 -840 Descending Indianapolis Center
09:29PM 40.0536 -85.2861 327° Northwest 449 517 26,300 -660 Descending Indianapolis Center
09:30PM 40.1556 -85.3778 326° Northwest 449 517 26,000 -660 Descending Indianapolis Center
09:31PM 40.2558 -85.4669 326° Northwest 444 511 25,000 -1,020 Descending Indianapolis Center
09:32PM 40.3531 -85.5536 326° Northwest 434 499 24,000 -540 Descending Indianapolis Center
09:33PM 40.4475 -85.6364 326° Northwest 420 483 24,000 -480 Level Chicago Center
09:34PM 40.5450 -85.7642 315° West 418 481 23,100 -1,020 Descending Chicago Center
09:35PM 40.6200 -85.8714 313° West 411 473 22,000 -1,200 Descending Chicago Center
09:36PM 40.6911 -85.9717 313° West 383 441 20,700 -1,200 Descending Chicago Center
09:37PM 40.7567 -86.0647 313° West 359 413 19,600 -1,080 Descending Chicago Center
09:38PM 40.8242 -86.1608 313° West 356 410 18,500 -1,080 Descending Chicago Center
09:39PM 40.8931 -86.2572 313° West 359 413 17,400 -1,020 Descending Chicago Center
09:40PM 40.9594 -86.3514 313° West 353 406 16,500 -960 Descending Chicago Center
09:41PM 41.0250 -86.4447 313° West 348 400 15,500 -1,020 Descending Chicago Center
09:42PM 41.1008 -86.5536 313° West 338 389 14,500 -1,020 Descending Chicago Center
09:44PM 41.1614 -86.6414 313° West 326 375 13,500 -900 Descending Chicago Center
09:45PM 41.2219 -86.7272 313° West 319 367 12,700 -840 Descending Chicago Center
09:46PM 41.2781 -86.8103 312° West 321 369 11,800 -840 Descending Chicago Center
09:47PM 41.3375 -86.8975 312° West 319 367 11,000 -420 Descending Chicago Center
09:48PM 41.4100 -87.0017 313° West 318 366 11,000  Level Chicago Center
09:49PM 41.4694 -87.0897 312° West 320 368 11,000  Level Chicago Center
09:50PM 41.5286 -87.1753 313° West 317 365 11,100  Climbing Chicago Center
09:51PM 41.5858 -87.2661 310° West 321 369 11,100 -240 Level Chicago Center
09:52PM 41.6408 -87.3544 310° West 315 362 10,700 -540 Descending Chicago Center
09:53PM 41.6950 -87.4400 310° West 306 352 10,100 -540 Descending Chicago Center
09:54PM 41.7744 -87.4925 334° Northwest 272 313 9,600 -780 Descending Chicago Center
09:55PM 41.8444 -87.4944 359° North 255 293 8,500 -780 Descending Chicago Center
09:56PM 41.8903 -87.4364 43° Northeast 228 262 8,100 -900 Descending Chicago Center
09:57PM 41.9472 -87.4458 353° North 206 237 6,700 -1,260 Descending Chicago Center
09:58PM 41.9622 -87.5222 285° West 213 245 5,600 -840 Descending Chicago Center
09:59PM 41.9658 -87.6181 273° West 215 247 5,000 -780 Descending Chicago Center
09:59PM 41.9667 -87.6667 271° West 209 241 4,400 -1,140 Descending Chicago TRACON
10:00PM 41.9667 -87.7167 270° West 184 212 3,500 -1,080 Descending Chicago TRACON
10:01PM 41.9667 -87.7833 270° West 175 201 2,400 -900 Descending Chicago TRACON
10:02PM 41.9667 -87.8333 270° West 124 143 1,700 -780 Descending Chicago TRACON
10:03PM 41.9667 -87.8833 270° West 117 135 1,000 -720 Descending Chicago TRACON